Jesús Gil

Recruteur en chef - Málaga
20 Nov 2027
Samedi
Processus

Personnalité

Adaptabilité (12) Ambition (17) Controverse (12) Loyauté (17) Pression (10) Professionnalisme (10) Sportivité (6) Tempérament (4)

Profil

Style d'entraînement Démocratique
Diplôme Continental A
Détermination 7
Gestion des joueurs 5
Motivation 8
Discipline 13
Satisfaction professionnelle
84%
Fatigue
0%
Rôle Recruteur en chef
Salaire 25.9K p/s
Contrat 14.03.2030

Performance

Comportement Bon
Efficacité de l'entraînement
33%
Développement des joueurs
60%
Prévention des blessures
65%
Mise en place tactique
60%

Événements récents

A évalué un joueur maintenant
A participé à une réunion de recrutement maintenant
A participé à une réunion de recrutement maintenant
A participé à une réunion de recrutement maintenant
A participé à une réunion de recrutement maintenant
Anniversaire maintenant
A évalué un joueur maintenant
A évalué un joueur 7j

Suivi en cours

196
Joueur Club Statut Capacité Confiance Observé Dernière observation Dernier vote
Halam Loboa Independiente Medellin Actif 115 / 120 40% 3 18.11.2027 -
Sebastián Ramírez America de Cali Actif 112 / 118 40% 2 18.11.2027 -
Biel La Equidad Actif 119 / 128 40% 1 18.11.2027 -
Mauro Carrizo Atlético Tucumán Actif 106 / 114 40% 3 17.11.2027 -
Uche Jaguar Kwara United Actif 92 / 103 40% 2 17.11.2027 -
Santiago Espíndola River Plate Actif 103 / 115 40% 1 17.11.2027 -
Agustín Medina Lanús Actif 112 / 126 40% 7 16.11.2027 -
Caleb Yirenkyi Coventry City Actif 140 / 146 40% 1 16.11.2027 -
Gideon Manaseh Ikorodu City Actif 87 / 104 40% 1 16.11.2027 -
Toni Tamarit Alverca Actif 117 / 132 40% 4 15.11.2027 -
Inti Borghetto Patronato Actif 97 / 92 40% 3 15.11.2027 -
Lucio Cruceño Godoy Cruz Actif 103 / 106 40% 1 15.11.2027 -
Héctor Fort Real Sociedad Actif 143 / 142 40% 3 14.11.2027 -
Aiden Hezarkhani Real Salt Lake Actif 91 / 94 40% 1 14.11.2027 -
Archie Gray Leicester City Actif 147 / 162 40% 1 14.11.2027 -
Dylan Gorosito Boca Juniors Actif 113 / 120 40% 2 13.11.2027 -
Camilo Rey Domenech Racing Club Actif 117 / 127 40% 2 12.11.2027 -
Lautaro Dufur Rentistas Actif 103 / 110 40% 2 12.11.2027 -
Matías Magdaleno Estudiantes Actif 105 / 109 40% 1 12.11.2027 -
Celías Ingenthron Platense Actif 109 / 128 40% 5 09.11.2027 -
Mads Bomholt Lillestrom Actif 113 / 120 40% 1 09.11.2027 -
Sergio Castillo Cortulua Actif 104 / 111 40% 1 07.11.2027 -
Ulises Giménez River Plate Actif 106 / 120 40% 2 05.11.2027 -
Axel Tape Bayer Leverkusen Actif 137 / 140 40% 1 05.11.2027 -
Nahuel Leivas Montevideo City Torque Actif 109 / 113 40% 1 05.11.2027 -
Joel Ezra Enyimba Actif 97 / 97 40% 2 04.11.2027 -
Geanfranco Rodríguez Defensor Sporting Actif 91 / 92 40% 3 04.11.2027 -
Juan Morán Godoy Cruz Actif 102 / 106 40% 1 03.11.2027 -
Timoteo Chamorro Vélez Actif 106 / 115 40% 2 02.11.2027 -
Facundo González River Plate Actif 107 / 110 40% 1 01.11.2027 -
Juan Giménez Rosario Central Actif 113 / 126 40% 1 01.11.2027 -
Nazareno Roselli Defensa y Justicia Actif 108 / 123 40% 2 15.10.2027 -
Diego Cheuquepal Racing Actif 95 / 107 40% 1 15.10.2027 -
Lautaro Ávila Racing Actif 95 / 95 40% 3 14.10.2027 -
Valente Pierani Boca Juniors Actif 113 / 120 40% 1 14.10.2027 -
Esteban de Lima Tacuarembo Actif 91 / 94 40% 3 13.10.2027 -
Hosea Michael Remo Stars Actif 81 / 92 40% 1 13.10.2027 -
Juan Manuel Villalba Boca Juniors Actif 124 / 126 40% 1 13.10.2027 -
Agustín Obregón River Plate Actif 113 / 124 40% 2 12.10.2027 -
Valentino Massi Sarmiento Actif 101 / 114 40% 1 12.10.2027 -
Matías Argüello Libertad Actif 94 / 102 40% 1 11.10.2027 -
Agustín Gálvez Atlético Tucumán Actif 93 / 98 40% 1 06.10.2027 -
Agustín De la Cuesta Argentinos Juniors Actif 111 / 124 40% 3 04.10.2027 -
Santino Gatti Belgrano Actif 100 / 101 40% 1 30.08.2027 -
Ignacio Pérez Antofagasta Actif 94 / 109 40% 1 24.08.2027 -
Álvaro Navoni Tigre Actif 95 / 94 40% 1 16.08.2027 -
Facundo Balatti Penarol Actif 100 / 107 40% 1 16.08.2027 -
Alan Morinigo Olimpia Négociation 120 / 120 40% 1 16.08.2027 -
Lucas Ribeiro Cultural Leonesa Rapport prêt 122 / 136 72% 1 14.06.2027 -
Konstantin Tyukavin Arsenal Négociation 132 / 133 66% 1 01.06.2027 -
Juan Fernándes Pinto Almagro Actif 103 / 117 40% 1 01.06.2027 -
Riquelme Thompson-Jones Shrewsbury Town Actif 98 / 113 40% 1 01.06.2027 -
Leandro Martins Benfica Actif 92 / 101 40% 1 01.06.2027 -
João Simões Sporting CP Actif 139 / 141 40% 2 27.05.2027 -
Jonathan De Irastorza Levante Actif 128 / 124 40% 1 27.05.2027 -
Yusi Alavés Actif 137 / 136 40% 6 22.05.2027 -
Jofre Torrents Ajax Actif 116 / 129 40% 3 21.05.2027 -
Gonçalo Oliveira Benfica Actif 110 / 119 40% 2 21.05.2027 -
Jon Garro Real Sociedad Actif 81 / 95 40% 1 21.05.2027 -
Agustín Alvez San Lorenzo Actif 95 / 98 40% 1 20.05.2027 -
Christos Mouzakitis Hull City Actif 130 / 144 40% 1 20.05.2027 -
Gladson Sulemana Liberty Professionals Actif 99 / 105 40% 1 19.05.2027 -
Facundo Infante Talleres Actif 92 / 91 40% 1 19.05.2027 -
Samuel Lucero Defensa y Justicia Actif 117 / 119 40% 3 16.05.2027 -
Pietro Reggiori Pro Patria Actif 84 / 104 40% 1 16.05.2027 -
Maeson King Blackpool Actif 99 / 110 40% 1 12.05.2027 -
Tiago Gordillo San Miguel Actif 91 / 92 40% 1 12.05.2027 -
Nazareno Kihm Ferro Carril Oeste Actif 115 / 117 40% 1 11.05.2027 -
Noah Nartey Olympique Lyonnais Actif 137 / 139 40% 1 11.05.2027 -
Enzo Cardozo Virtus Entella Actif 114 / 116 40% 1 10.05.2027 -
Thomas Alderweireld Dijon Actif 125 / 139 40% 1 04.05.2027 -
Marcos López Banfield Actif 98 / 110 40% 1 03.05.2027 -
Riley Owen Wycombe Wanderers Actif 95 / 114 40% 2 22.04.2027 -
Octavio Ontivero Lanús Actif 109 / 114 40% 1 14.04.2027 -
Bakary Haïdara Hearts of Oak Actif 106 / 113 40% 1 13.04.2027 -
Joel McGregor Swindon Town Actif 94 / 100 40% 1 13.04.2027 -
Felipe Obradovich Gimnasia La Plata Actif 101 / 117 40% 1 11.04.2027 -
Yussif Saidu Zaragoza Actif 117 / 130 40% 1 11.04.2027 -
Hugo Rojas Instituto Actif 101 / 108 40% 1 08.04.2027 -
Lucas Jetten Cambuur Actif 103 / 127 40% 1 07.04.2027 -
José Pachuca Puebla Actif 112 / 123 40% 1 07.04.2027 -
Sam Curtis Swindon Town Actif 99 / 114 40% 1 06.04.2027 -
Abraham Paintsil Hasaacas Actif 79 / 109 40% 1 05.04.2027 -
Tiago Freitas Benfica Actif 112 / 108 40% 1 05.04.2027 -
Santiago Montiel Independiente Actif 134 / 128 40% 8 26.01.2027 -
Manu Pozo Torreense Actif 122 / 125 40% 1 26.01.2027 -
Abel Ruiz Girona Actif 141 / 134 40% 1 26.01.2027 -
Alex Scott Bournemouth Actif 148 / 145 40% 1 18.01.2027 -
Omar El Hilali Espanyol Actif 156 / 153 40% 1 18.01.2027 -
Pol Lozano Espanyol Actif 133 / 136 40% 1 18.01.2027 -
Unai Vencedor Burgos Actif 132 / 135 40% 1 11.01.2027 -
Florentino Luís Ipswich Town Actif 135 / 148 40% 1 07.01.2027 -
Callum Doyle Wrexham Actif 123 / 127 40% 1 03.01.2027 -
Antonio Blanco Alavés Actif 144 / 145 40% 1 03.01.2027 -
Fran Beltrán Girona Actif 145 / 130 40% 1 03.01.2027 -
Pedro de la Vega Leganés Perdu 133 / 134 90% 1 01.01.2027 -
Toni Fruk Valladolid Négociation 132 / 133 66% 1 01.01.2027 -
Adnan Carrasco FC Nantes Négociation 151 / 156 64% 1 01.01.2027 -
José Paradela Cerro Porteno Négociation 137 / 137 66% 1 01.01.2027 -
Bitello Empoli Perdu 135 / 135 91% 1 01.01.2027 -
Yeremay Deportivo La Coruña Actif 150 / 133 40% 4 30.12.2026 -
Tomás O'Connor Gimnasia y Esgrima Actif 124 / 123 40% 2 30.12.2026 -
Santi García Gil Vicente Actif 132 / 140 40% 2 30.12.2026 -
Gaspar Gijón Actif 146 / 145 40% 3 29.12.2026 Observer
Pablo Solari Spartak Moscow Actif 141 / 130 40% 1 29.12.2026 -
Carlos Álvarez Club America Actif 147 / 136 40% 15 28.12.2026 Observer
Gonzalo Fulham Actif 138 / 146 40% 4 23.12.2026 -
Dilan Godoy Vélez Actif 102 / 114 40% 2 23.12.2026 -
Alex Vigo Independiente Rivadavia Actif 116 / 124 40% 2 23.12.2026 -
Alexis Cuello San Lorenzo Actif 127 / 123 40% 1 23.12.2026 -
Matías Fernández-Pardo Newcastle United Actif 144 / 146 40% 1 23.12.2026 -
Mathys Tel Stade Rennais Actif 150 / 156 40% 2 22.12.2026 -
Roberto Fernández Braga Actif 135 / 145 40% 6 18.12.2026 -
Rodrigo González Aldosivi Actif 126 / 113 40% 1 18.12.2026 -
César Ibáñez Huracán Actif 132 / 128 40% 2 17.12.2026 -
Lautaro Ríos Banfield Actif 110 / 110 40% 1 17.12.2026 -
Alan Lescano Argentinos Juniors Actif 128 / 122 40% 3 16.12.2026 -
Mariano Bracamonte Deportivo Riestra Actif 123 / 114 40% 2 16.12.2026 -
Erick Sánchez Valladolid Actif 147 / 137 40% 1 16.12.2026 -
Franco Ibarra Rosario Central Actif 133 / 126 40% 4 15.12.2026 -
Federico Navarro Rosario Central Actif 128 / 119 40% 2 15.12.2026 -
Carlos Vicente Udinese Actif 150 / 133 40% 3 14.12.2026 -
Facundo Salinas Vélez Actif 98 / 111 40% 1 14.12.2026 -
Franco Zapiola Platense Actif 126 / 126 40% 3 12.12.2026 -
Matías Fernández Independiente Rivadavia Actif 121 / 128 40% 4 11.12.2026 -
Diego Lainez Tigres Actif 124 / 122 40% 3 09.12.2026 -
Manuel Mónaco Sarmiento Actif 118 / 120 40% 1 09.12.2026 -
Ramiro Ruiz Rodríguez Atlético Tucumán Actif 119 / 117 40% 4 04.12.2026 -
Pedro Porro Tottenham Actif 140 / 151 40% 2 03.12.2026 -
Baltasar Rodríguez Estudiantes Actif 127 / 123 40% 2 01.12.2026 -
Matías Giménez Rojas Argentinos Juniors Actif 123 / 127 40% 1 01.12.2026 -
Aarón Molinas Defensa y Justicia Actif 122 / 118 40% 1 30.11.2026 -
Martín Ortega Newell's Old Boys Actif 126 / 113 40% 1 30.11.2026 -
Rodrigo Herrera Newell's Old Boys Actif 122 / 129 40% 1 27.11.2026 -
Ezequiel Bullaude Santos Laguna Actif 129 / 122 40% 1 27.11.2026 -
César Huerta Pumas UNAM Actif 131 / 130 40% 1 26.11.2026 -
Enzo Loiodice KAA Gent Actif 131 / 132 40% 2 25.11.2026 -
Helinho Toluca Actif 140 / 127 40% 2 25.11.2026 -
Alejandro Medina Tigre Actif 87 / 96 40% 1 25.11.2026 -
Alan Coria Defensa y Justicia Actif 105 / 109 40% 1 25.11.2026 -
Luciano Sábato Independiente Rivadavia Actif 90 / 99 40% 1 24.11.2026 -
Fabricio Ventresca Deportivo Riestra Actif 93 / 95 40% 1 24.11.2026 -
Alex Luna Instituto Actif 136 / 123 40% 2 22.11.2026 -
Pau Víctor Estrela da Amadora Actif 132 / 140 40% 2 22.11.2026 Plus d'infos
Joaquín García Vélez Actif 127 / 118 40% 5 21.11.2026 -
Adrià Altimira Deportivo La Coruña Actif 127 / 128 40% 1 21.11.2026 -
Augusto Schott Talleres Actif 115 / 124 40% 3 20.11.2026 -
Franco Domínguez Ávila Estudiantes Actif 91 / 94 40% 1 20.11.2026 -
Axel Orrabalis Racing Club Actif 81 / 93 40% 1 16.11.2026 -
Ignacio Copetti Central Córdoba SdE Actif 87 / 97 40% 1 16.11.2026 -
Nicolás Baigorria San Telmo Actif 90 / 99 40% 1 14.11.2026 -
Matías Contrera Northampton Town Actif 90 / 99 40% 1 14.11.2026 -
Juanlu Bournemouth Actif 152 / 141 40% 4 12.11.2026 -
Tiago Palacios Estudiantes Actif 136 / 130 40% 1 12.11.2026 -
Eric Meza Estudiantes Actif 127 / 125 40% 1 12.11.2026 -
Thiago Ponce Rosario Central Actif 100 / 105 40% 2 10.11.2026 -
Dylan Salvo Defensores Unidos Actif 104 / 99 40% 1 10.11.2026 -
Manuel Insaurralde San Lorenzo Actif 119 / 115 40% 3 08.11.2026 -
Santiago González Tigre Actif 119 / 126 40% 1 08.11.2026 -
Pedro Ramírez Deportivo Riestra Actif 118 / 116 40% 1 08.11.2026 -
Franco Díaz Temperley Actif 126 / 127 40% 2 07.11.2026 -
Alexander Díaz Deportivo Riestra Actif 123 / 122 40% 2 05.11.2026 -
Iván Tapia Barracas Central Actif 116 / 126 40% 2 05.11.2026 -
Alexis Steimbach Gimnasia La Plata Actif 118 / 128 40% 1 04.11.2026 -
Jeremías Reyna Vélez Actif 93 / 108 40% 1 04.11.2026 -
Matías Acevedo Racing Club Actif 99 / 114 40% 1 01.11.2026 -
Joaquín Gho Argentinos Juniors Actif 126 / 120 40% 2 30.10.2026 -
Stefano Moreyra Independiente Rivadavia Actif 113 / 128 40% 1 28.10.2026 -
Juan Bisanz Huracán Actif 129 / 120 40% 1 28.10.2026 -
Gastón Benedetti Estudiantes Actif 126 / 123 40% 1 23.10.2026 -
Jaminton Campaz Rosario Central Actif 129 / 129 40% 1 22.10.2026 -
Franco Sassone Defensores Actif 87 / 88 40% 1 22.10.2026 -
Nahuel Reyes Mitre Actif 86 / 92 40% 1 21.10.2026 -
Axel Pedrozo Almagro Actif 86 / 91 40% 1 20.10.2026 -
Alexis Devesa Aldosivi Actif 81 / 99 40% 1 20.10.2026 -
Felipe Peña Biafore Lanús Actif 127 / 127 40% 1 18.10.2026 -
Tomás Adoryan Banfield Actif 123 / 118 40% 1 16.10.2026 -
Riqui Puig LA Galaxy Actif 131 / 136 40% 1 16.10.2026 -
Imanol Machuca Independiente Actif 130 / 129 40% 1 15.10.2026 -
Kevin Álvarez Club America Actif 129 / 140 40% 1 15.10.2026 -
Franco Romero Toluca Actif 128 / 134 40% 1 15.10.2026 -
Ryan Sessegnon Fulham Actif 141 / 136 40% 2 14.10.2026 -
Flavien-Enzo Boyomo Osasuna Actif 155 / 158 40% 1 14.10.2026 -
Federico Bonini Almería Actif 127 / 134 40% 1 14.10.2026 -
Sergio Barreto Pachuca Actif 126 / 134 40% 1 13.10.2026 -
Guille Rosas Gijón Actif 135 / 140 40% 1 13.10.2026 -
Víctor Gómez Braga Actif 140 / 134 40% 1 12.10.2026 -
Tyler Adams Bournemouth Actif 158 / 144 40% 1 12.10.2026 -
Adrien Truffert Bournemouth Actif 147 / 157 40% 1 12.10.2026 -
Adalberto Carrasquilla Pumas UNAM Actif 120 / 131 40% 1 11.10.2026 -
Joaquim Tigres Actif 127 / 121 40% 1 09.10.2026 -
Juan Carlos Portillo River Plate Actif 127 / 119 40% 1 09.10.2026 -
Tomás Galván River Plate Actif 129 / 130 40% 1 07.10.2026 -
Fernando Martínez Central Córdoba SdE Actif 115 / 125 40% 1 05.10.2026 -
Giovanni Cantizano Rosario Central Actif 97 / 122 40% 1 24.08.2026 -
Thiago Currado Platense Actif 95 / 103 40% 1 01.08.2026 -